Flight Track Log - Related Links

Times and Time Zones

All times are in EDT time to prevent confusion due to time zone crossing. See the EJA831 flight status page for this flight to view local times or setup timezone preferences in your user account.

Time Position Orientation Groundspeed Altitude Reporting Facility
EDT Latitude Longitude Course Direction KTS MPH feet Rate Location/Type
Fri 02:43:14 PM 32.8000 -97.3500 180° South 179 206 1,500  Level Dallas / Fort Worth TRACON
Fri 02:43:38 PM 32.7833 -97.3500 180° South 194 223 2,700 3,173 Climbing Dallas / Fort Worth TRACON
Fri 02:44:58 PM 32.7086 -97.3336 170° South 218 251 7,000 3,085 Climbing Fort Worth Center
Fri 02:46:00 PM 32.6897 -97.2486 105° East 279 321 10,000 3,097 Climbing Fort Worth Center
Fri 02:47:02 PM 32.6989 -97.1378 84° East 313 360 13,400 3,145 Climbing Fort Worth Center
Fri 02:48:04 PM 32.7092 -97.0286 84° East 328 377 16,500 3,000 Climbing Fort Worth Center
Fri 02:49:06 PM 32.7183 -96.9061 85° East 343 395 19,600 2,613 Climbing Fort Worth Center
Fri 02:50:08 PM 32.7269 -96.7850 85° East 353 406 21,900 1,968 Climbing Fort Worth Center
Fri 02:51:11 PM 32.7367 -96.6700 84° East 376 433 23,700 1,728 Climbing Fort Worth Center
Fri 02:52:13 PM 32.7497 -96.5425 83° East 390 449 25,500 1,113 Climbing Fort Worth Center
Fri 02:53:15 PM 32.7811 -96.4122 74° East 407 468 26,000 629 Climbing Fort Worth Center
Fri 02:54:17 PM 32.8197 -96.2436 75° East 437 503 26,800 1,258 Climbing Fort Worth Center
Fri 02:55:19 PM 32.8194 -96.1006 90° East 442 509 28,600 1,645 Climbing Fort Worth Center
Fri 02:56:21 PM 32.8089 -95.9556 95° East 442 509 30,200 1,500 Climbing Fort Worth Center
Fri 02:57:23 PM 32.7989 -95.8106 95° East 442 509 31,700 1,452 Climbing Fort Worth Center
Fri 02:58:25 PM 32.7869 -95.6656 96° East 442 509 33,200 1,403 Climbing Fort Worth Center
Fri 02:59:27 PM 32.7742 -95.5206 96° East 442 509 34,600 1,258 Climbing Fort Worth Center
Fri 03:00:29 PM 32.7603 -95.3456 95° East 444 511 35,800 1,008 Climbing Fort Worth Center
Fri 03:01:32 PM 32.7500 -95.2181 95° East 446 513 36,700 1,008 Climbing Fort Worth Center
Fri 03:02:34 PM 32.7344 -95.0394 96° East 453 521 37,900 1,065 Climbing Fort Worth Center
Fri 03:03:36 PM 32.7219 -94.8914 96° East 453 521 38,900 968 Climbing Fort Worth Center
Fri 03:04:38 PM 32.6953 -94.7472 102° East 453 521 39,900 968 Climbing Fort Worth Center
Fri 03:05:40 PM 32.6494 -94.6089 111° Southeast 453 521 40,900 532 Climbing Fort Worth Center
Fri 03:06:42 PM 32.6019 -94.4694 112° Southeast 450 518 41,000 48 Climbing Fort Worth Center
Fri 03:07:44 PM 32.5453 -94.3047 112° Southeast 460 529 41,000  Level Fort Worth Center
Fri 03:08:46 PM 32.4964 -94.1614 112° Southeast 469 540 41,000  Level Fort Worth Center
Fri 03:09:49 PM 32.4467 -94.0186 112° Southeast 470 541 41,000  Level Fort Worth Center
Fri 03:10:51 PM 32.3978 -93.8767 112° Southeast 468 539 41,000  Level Fort Worth Center
Fri 03:11:53 PM 32.3478 -93.7333 112° Southeast 471 542 41,000  Level Fort Worth Center
Fri 03:12:55 PM 32.2869 -93.5611 113° Southeast 476 548 41,000  Level Fort Worth Center
Fri 03:13:57 PM 32.2364 -93.4181 113° Southeast 474 545 41,000  Level Fort Worth Center
Fri 03:14:59 PM 32.1867 -93.2728 112° Southeast 477 549 41,000  Level Fort Worth Center
Fri 03:16:01 PM 32.1308 -93.1122 112° Southeast 479 551 41,000  Level Fort Worth Center
Fri 03:16:56 PM 32.0892 -92.9981 113° Southeast 477 549 41,000  Level Houston Center
Fri 03:17:58 PM 32.0322 -92.8444 114° Southeast 478 550 41,000  Level Houston Center
Fri 03:19:00 PM 31.9819 -92.7000 112° Southeast 478 550 41,000  Level Houston Center
Fri 03:20:02 PM 31.9397 -92.5514 108° East 478 550 41,000  Level Houston Center
Fri 03:21:05 PM 31.8914 -92.3719 108° East 478 550 41,000  Level Houston Center
Fri 03:22:07 PM 31.8511 -92.2236 108° East 478 550 41,000  Level Houston Center
Fri 03:23:09 PM 31.8100 -92.0750 108° East 478 550 41,000  Level Houston Center
Fri 03:24:11 PM 31.7733 -91.9325 107° East 475 547 41,000  Level Houston Center
Fri 03:25:13 PM 31.7319 -91.7836 108° East 475 547 41,000  Level Houston Center
Fri 03:26:15 PM 31.6833 -91.6047 108° East 476 548 41,000  Level Houston Center
Fri 03:27:17 PM 31.6419 -91.4567 108° East 477 549 41,000  Level Houston Center
Fri 03:29:22 PM 31.5597 -91.1592 108° East 477 549 41,000  Level Houston Center
Fri 03:30:24 PM 31.5144 -90.9975 108° East 479 551 41,000  Level Houston Center
Fri 03:31:26 PM 31.4722 -90.8489 108° East 479 551 41,000  Level Houston Center
Fri 03:32:28 PM 31.4306 -90.7000 108° East 481 554 41,000  Level Houston Center
Fri 03:33:30 PM 31.4086 -90.5444 99° East 482 555 41,000  Level Houston Center
Fri 03:34:33 PM 31.3914 -90.3867 97° East 486 559 41,000  Level Houston Center
Fri 03:35:35 PM 31.3694 -90.1978 98° East 486 559 41,000  Level Houston Center
Fri 03:36:37 PM 31.3517 -90.0392 97° East 487 560 41,000  Level Houston Center
Fri 03:37:39 PM 31.3328 -89.8831 98° East 487 560 41,000  Level Houston Center
Fri 03:38:41 PM 31.3144 -89.7244 98° East 487 560 41,000  Level Houston Center
Fri 03:39:43 PM 31.2956 -89.5658 98° East 487 560 41,000  Level Houston Center
Fri 03:40:45 PM 31.2750 -89.4103 99° East 488 562 41,000  Level Houston Center
Fri 03:41:48 PM 31.2522 -89.2214 98° East 488 562 41,000  Level Houston Center
Fri 03:42:50 PM 31.2314 -89.0603 99° East 494 568 41,000  Level Houston Center
Fri 03:43:53 PM 31.2125 -88.9067 98° East 491 565 41,000  Level Houston Center
Fri 03:44:54 PM 31.1933 -88.7511 98° East 490 564 41,000  Level Houston Center
Fri 03:45:56 PM 31.1739 -88.5917 98° East 489 563 41,000  Level Houston Center
Fri 03:46:58 PM 31.1514 -88.4322 99° East 495 570 41,000  Level Houston Center
Fri 03:48:00 PM 31.1261 -88.2436 99° East 493 567 41,000  Level Houston Center
Fri 03:49:03 PM 31.1067 -88.0864 98° East 492 566 41,000  Level Houston Center
Fri 03:50:05 PM 31.0850 -87.9286 99° East 493 567 41,000  Level Houston Center
Fri 03:51:07 PM 31.0636 -87.7711 99° East 493 567 41,000  Level Houston Center
Fri 03:52:09 PM 31.0408 -87.6056 99° East 491 565 41,000  Level Houston Center
Fri 03:53:12 PM 31.0194 -87.4481 99° East 492 566 41,000  Level Houston Center
Fri 03:54:13 PM 30.9850 -87.2972 105° East 483 556 41,000  Level Houston Center
Fri 03:55:15 PM 30.9300 -87.1208 110° East 483 556 41,000  Level Houston Center
Fri 03:56:22 PM 30.8881 -86.9736 108° East 482 555 41,000  Level Jacksonville Center
Fri 03:57:22 PM 30.8422 -86.8314 111° Southeast 475 547 41,000  Level Jacksonville Center
Fri 03:58:22 PM 30.8008 -86.6847 108° East 475 547 41,000  Level Jacksonville Center
Fri 03:59:22 PM 30.7469 -86.5278 112° Southeast 475 547 41,000  Level Jacksonville Center
Fri 04:00:22 PM 30.7067 -86.3983 110° East 475 547 41,000  Level Jacksonville Center
Fri 04:01:22 PM 30.6586 -86.2517 111° Southeast 475 547 41,000  Level Jacksonville Center
Fri 04:02:22 PM 30.6122 -86.1050 110° East 475 547 41,000  Level Jacksonville Center
Fri 04:03:22 PM 30.5678 -85.9589 109° East 475 547 41,000  Level Jacksonville Center
Fri 04:04:22 PM 30.5211 -85.8153 111° Southeast 475 547 41,000  Level Jacksonville Center
Fri 04:05:22 PM 30.4742 -85.6717 111° Southeast 475 547 41,000  Level Jacksonville Center
Fri 04:06:22 PM 30.4294 -85.5258 110° East 475 547 41,000  Level Jacksonville Center
Fri 04:07:22 PM 30.3822 -85.3800 111° Southeast 475 547 41,000  Level Jacksonville Center
Fri 04:08:22 PM 30.3347 -85.2367 111° Southeast 475 547 41,000  Level Jacksonville Center
Fri 04:09:22 PM 30.2853 -85.0889 111° Southeast 475 547 41,000  Level Jacksonville Center
Fri 04:10:22 PM 30.2375 -84.9433 111° Southeast 480 552 41,000  Level Jacksonville Center
Fri 04:11:22 PM 30.1917 -84.7983 110° East 480 552 41,000  Level Jacksonville Center
Fri 04:12:22 PM 30.1458 -84.6581 111° Southeast 474 545 41,000  Level Jacksonville Center
Fri 04:13:22 PM 30.0975 -84.5156 111° Southeast 474 545 41,000  Level Jacksonville Center
Fri 04:14:22 PM 30.0492 -84.3756 112° Southeast 474 545 41,000  Level Jacksonville Center
Fri 04:15:22 PM 29.9667 -84.2808 135° Southeast 437 503 41,000  Level Jacksonville Center
Fri 04:16:22 PM 29.8778 -84.1908 139° Southeast 424 488 41,000  Level Jacksonville Center
Fri 04:17:22 PM 29.7847 -84.0939 138° Southeast 417 480 41,000  Level Jacksonville Center
Fri 04:18:22 PM 29.7000 -84.0044 137° Southeast 417 480 41,000  Level Jacksonville Center
Fri 04:19:22 PM 29.6194 -83.9222 138° Southeast 417 480 41,000  Level Jacksonville Center
Fri 04:20:22 PM 29.5344 -83.8331 138° Southeast 422 486 41,000  Level Jacksonville Center
Fri 04:21:22 PM 29.4475 -83.7439 138° Southeast 416 479 41,000  Level Jacksonville Center
Fri 04:22:22 PM 29.3622 -83.6550 138° Southeast 416 479 41,000  Level Jacksonville Center
Fri 04:23:22 PM 29.2731 -83.5639 138° Southeast 416 479 41,000  Level Jacksonville Center
Fri 04:24:22 PM 29.1858 -83.4753 138° Southeast 416 479 41,000  Level Jacksonville Center
Fri 04:25:22 PM 29.0986 -83.3844 138° Southeast 416 479 41,000  Level Jacksonville Center
Fri 04:26:22 PM 29.0111 -83.2986 139° Southeast 411 473 41,000  Level Jacksonville Center
Fri 04:27:22 PM 28.9258 -83.2081 137° Southeast 411 473 41,000  Level Jacksonville Center
Fri 04:28:22 PM 28.8364 -83.1200 139° Southeast 411 473 41,000  Level Jacksonville Center
Fri 04:29:22 PM 28.7508 -83.0300 137° Southeast 411 473 41,000  Level Jacksonville Center
Fri 04:30:22 PM 28.6550 -82.9328 138° Southeast 416 479 41,000  Level Jacksonville Center
Fri 04:31:22 PM 28.5672 -82.8453 139° Southeast 411 473 41,000  Level Jacksonville Center
Fri 04:32:22 PM 28.4794 -82.7556 138° Southeast 411 473 41,000  Level Jacksonville Center
Fri 04:33:22 PM 28.3917 -82.6683 139° Southeast 411 473 41,000  Level Jacksonville Center
Fri 04:34:22 PM 28.3019 -82.5789 139° Southeast 416 479 41,000 -50 Level Jacksonville Center
Fri 04:35:22 PM 28.2139 -82.4897 138° Southeast 416 479 40,900 -1,898 Descending Jacksonville Center
Fri 04:37:19 PM 28.0469 -82.3242 139° Southeast 416 479 35,400 -2,648 Descending Miami Center
Fri 04:38:21 PM 27.9481 -82.2792 158° South 388 447 33,000 -1,355 Descending Miami Center
Fri 04:39:23 PM 27.8439 -82.2428 163° South 389 448 32,600 -1,403 Descending Miami Center
Fri 04:40:25 PM 27.7119 -82.1969 163° South 401 461 30,100 -2,160 Descending Miami Center
Fri 04:41:28 PM 27.6136 -82.1628 163° South 389 448 28,100 -1,968 Descending Miami Center
Fri 04:42:30 PM 27.5058 -82.1258 163° South 385 443 26,000 -1,935 Descending Miami Center
Fri 04:43:32 PM 27.3942 -82.0881 163° South 395 455 24,100 -968 Descending Miami Center
Fri 04:44:34 PM 27.2833 -82.0511 163° South 397 457 24,000 -48 Descending Miami Center
Fri 04:45:36 PM 27.1733 -82.0144 163° South 399 459 24,000  Level Miami Center
Fri 04:46:38 PM 27.0647 -81.9636 157° South 403 464 24,000  Level Miami Center
Fri 04:47:41 PM 26.9675 -81.8919 147° Southeast 416 479 24,000 -384 Level Miami Center
Fri 04:48:43 PM 26.8717 -81.8211 147° Southeast 415 478 23,200 -1,403 Descending Miami Center
Fri 04:49:45 PM 26.7761 -81.7506 147° Southeast 414 476 21,100 -1,984 Descending Miami Center
Fri 04:50:47 PM 26.6989 -81.6661 136° Southeast 399 459 19,100 -1,113 Descending Miami Center
Fri 04:51:49 PM 26.7144 -81.5236 83° East 414 476 18,800 -532 Descending Miami Center
Fri 04:52:51 PM 26.7456 -81.3911 75° East 404 465 18,000 -384 Descending Miami Center
Fri 04:53:54 PM 26.7731 -81.2728 75° East 397 457 18,000 -144 Level Miami Center
Fri 04:54:56 PM 26.8033 -81.1458 75° East 397 457 17,700 -2,032 Descending Miami Center
Fri 04:55:58 PM 26.8217 -81.0333 80° East 364 419 13,800 -3,629 Descending Miami Center
Fri 04:57:00 PM 26.8325 -80.9136 84° East 369 425 10,200 -1,839 Descending Miami Center
Fri 04:58:02 PM 26.8178 -80.8031 98° East 356 410 10,000 -96 Descending Miami Center
Fri 04:59:05 PM 26.7803 -80.6969 112° Southeast 354 407 10,000 -480 Level Miami Center
Fri 05:00:07 PM 26.7458 -80.6014 112° Southeast 314 361 9,000 -968 Descending Miami Center
Fri 05:01:09 PM 26.7147 -80.5169 112° Southeast 293 337 8,000 -484 Descending Miami Center
Fri 05:02:11 PM 26.6842 -80.4342 112° Southeast 290 334 8,000  Level Miami Center
Fri 05:03:14 PM 26.6497 -80.3422 113° Southeast 294 338 8,000 -480 Level Miami Center
Fri 05:04:16 PM 26.6181 -80.2597 113° Southeast 290 334 7,000 -1,887 Descending Miami Center
Fri 05:05:18 PM 26.5881 -80.1744 111° Southeast 277 319 4,100 -1,452 Descending Miami Center
Fri 05:06:20 PM 26.5825 -80.0972 95° East 252 290 4,000 -48 Descending Miami Center
Fri 05:07:22 PM 26.5747 -80.0247 97° East 214 246 4,000  Level Miami Center
Fri 05:08:25 PM 26.5697 -79.9631 95° East 201 231 4,000  Level Miami Center
Fri 05:09:27 PM 26.5672 -79.8964 92° East 199 229 4,000 -919 Level Miami Center
Fri 05:10:29 PM 26.6178 -79.8914 North 197 227 2,100 -968 Descending Miami Center
Fri 05:11:31 PM 26.6553 -79.9331 315° West 177 204 2,000 -96 Descending Miami Center
Fri 05:12:34 PM 26.6794 -79.9761 302° West 167 192 1,900 -528 Descending Miami Center
Fri 05:13:36 PM 26.6789 -80.0317 269° West 169 194 900 -629 Descending Miami Center
Fri 05:14:38 PM 26.6808 -80.0775 273° West 163 188 600 -290 Descending Miami Center
Fri 05:16:00 PM 26.6832 -80.0956 90° East  Level Estimated

Login

Don't have an account? Register now (free) for customized features, flight alerts, and more!